sensor_id;sensor_type;location;lat;lon;timestamp;pressure;altitude;pressure_sealevel;temperature;humidity
64713;BME280;51140;45.340;5.980;2023-09-30T00:00:22;98991.94;;;19.24;77.20
64713;BME280;51140;45.340;5.980;2023-09-30T00:02:47;98986.63;;;19.33;75.16
64713;BME280;51140;45.340;5.980;2023-09-30T00:05:13;98983.25;;;19.41;74.69
64713;BME280;51140;45.340;5.980;2023-09-30T00:07:40;98979.28;;;19.38;74.70
64713;BME280;51140;45.340;5.980;2023-09-30T00:10:06;98980.66;;;19.36;74.82
64713;BME280;51140;45.340;5.980;2023-09-30T00:12:31;98974.50;;;19.08;76.86
64713;BME280;51140;45.340;5.980;2023-09-30T00:14:57;98983.84;;;19.11;76.63
64713;BME280;51140;45.340;5.980;2023-09-30T00:17:22;98986.75;;;19.14;75.75
64713;BME280;51140;45.340;5.980;2023-09-30T00:19:48;98985.66;;;19.02;76.44
64713;BME280;51140;45.340;5.980;2023-09-30T00:22:13;98988.22;;;19.07;75.74
64713;BME280;51140;45.340;5.980;2023-09-30T00:24:39;98972.78;;;19.12;75.83
64713;BME280;51140;45.340;5.980;2023-09-30T00:27:04;98979.06;;;19.08;75.45
64713;BME280;51140;45.340;5.980;2023-09-30T00:29:29;98977.88;;;19.14;75.84
64713;BME280;51140;45.340;5.980;2023-09-30T00:31:55;98979.28;;;19.11;76.19
64713;BME280;51140;45.340;5.980;2023-09-30T00:34:20;98978.28;;;19.07;76.10
64713;BME280;51140;45.340;5.980;2023-09-30T00:36:46;98977.88;;;19.00;77.28
64713;BME280;51140;45.340;5.980;2023-09-30T00:39:12;98981.66;;;18.99;76.44
64713;BME280;51140;45.340;5.980;2023-09-30T00:41:39;98985.53;;;18.93;77.34
64713;BME280;51140;45.340;5.980;2023-09-30T00:44:05;98974.97;;;18.83;77.91
64713;BME280;51140;45.340;5.980;2023-09-30T00:46:32;98978.38;;;18.89;77.61
64713;BME280;51140;45.340;5.980;2023-09-30T00:48:59;98972.66;;;18.76;76.97
64713;BME280;51140;45.340;5.980;2023-09-30T00:51:26;98970.69;;;18.68;77.82
64713;BME280;51140;45.340;5.980;2023-09-30T00:53:52;98962.94;;;18.94;76.47
64713;BME280;51140;45.340;5.980;2023-09-30T00:56:19;98966.09;;;18.82;78.47
64713;BME280;51140;45.340;5.980;2023-09-30T00:58:45;98970.94;;;18.67;78.95
64713;BME280;51140;45.340;5.980;2023-09-30T01:01:11;98974.06;;;18.42;79.82
64713;BME280;51140;45.340;5.980;2023-09-30T01:03:37;98982.28;;;18.50;79.50
64713;BME280;51140;45.340;5.980;2023-09-30T01:06:03;98976.97;;;18.45;79.29
64713;BME280;51140;45.340;5.980;2023-09-30T01:08:29;98968.25;;;18.53;80.11
64713;BME280;51140;45.340;5.980;2023-09-30T01:10:55;98968.34;;;18.62;78.28
64713;BME280;51140;45.340;5.980;2023-09-30T01:13:21;98970.91;;;18.85;76.87
64713;BME280;51140;45.340;5.980;2023-09-30T01:15:47;98963.09;;;18.70;77.78
64713;BME280;51140;45.340;5.980;2023-09-30T01:18:12;98964.50;;;18.81;76.44
64713;BME280;51140;45.340;5.980;2023-09-30T01:20:38;98954.16;;;18.89;76.30
64713;BME280;51140;45.340;5.980;2023-09-30T01:23:03;98960.91;;;18.72;76.43
64713;BME280;51140;45.340;5.980;2023-09-30T01:25:29;98964.50;;;18.81;76.42
64713;BME280;51140;45.340;5.980;2023-09-30T01:27:55;98962.81;;;18.85;76.61
64713;BME280;51140;45.340;5.980;2023-09-30T01:30:20;98958.13;;;18.77;77.53
64713;BME280;51140;45.340;5.980;2023-09-30T01:32:47;98959.91;;;18.68;78.44
64713;BME280;51140;45.340;5.980;2023-09-30T01:35:13;98954.00;;;18.53;79.23
64713;BME280;51140;45.340;5.980;2023-09-30T01:37:39;98970.44;;;18.51;79.02
64713;BME280;51140;45.340;5.980;2023-09-30T01:40:05;98967.72;;;18.19;81.07
64713;BME280;51140;45.340;5.980;2023-09-30T01:42:36;98966.06;;;18.04;80.76
64713;BME280;51140;45.340;5.980;2023-09-30T01:45:01;98959.53;;;18.10;80.28
64713;BME280;51140;45.340;5.980;2023-09-30T01:47:27;98968.53;;;18.19;78.99
64713;BME280;51140;45.340;5.980;2023-09-30T01:49:53;98962.00;;;18.07;80.39
64713;BME280;51140;45.340;5.980;2023-09-30T01:52:18;98974.25;;;18.32;79.12
64713;BME280;51140;45.340;5.980;2023-09-30T01:54:43;98967.00;;;18.46;77.94
64713;BME280;51140;45.340;5.980;2023-09-30T01:57:09;98969.56;;;18.37;79.67
64713;BME280;51140;45.340;5.980;2023-09-30T01:59:35;98974.03;;;18.28;79.26
64713;BME280;51140;45.340;5.980;2023-09-30T02:02:00;98979.69;;;18.26;79.07
64713;BME280;51140;45.340;5.980;2023-09-30T02:04:25;98979.75;;;18.40;78.22
64713;BME280;51140;45.340;5.980;2023-09-30T02:06:51;98979.75;;;18.40;78.42
64713;BME280;51140;45.340;5.980;2023-09-30T02:09:16;98982.50;;;18.35;78.66
64713;BME280;51140;45.340;5.980;2023-09-30T02:11:41;98983.50;;;18.39;78.18
64713;BME280;51140;45.340;5.980;2023-09-30T02:14:07;98987.59;;;18.37;79.25
64713;BME280;51140;45.340;5.980;2023-09-30T02:16:32;98974.03;;;18.28;79.49
64713;BME280;51140;45.340;5.980;2023-09-30T02:18:58;98981.66;;;18.21;79.87
64713;BME280;51140;45.340;5.980;2023-09-30T02:21:24;98971.00;;;18.16;80.80
64713;BME280;51140;45.340;5.980;2023-09-30T02:23:49;98983.47;;;18.07;81.26
64713;BME280;51140;45.340;5.980;2023-09-30T02:26:15;98979.34;;;17.96;81.90
64713;BME280;51140;45.340;5.980;2023-09-30T02:28:41;98977.69;;;18.00;81.36
64713;BME280;51140;45.340;5.980;2023-09-30T02:31:06;98977.91;;;17.85;83.42
64713;BME280;51140;45.340;5.980;2023-09-30T02:33:33;98976.44;;;17.92;82.05
64713;BME280;51140;45.340;5.980;2023-09-30T02:36:01;98972.31;;;18.00;81.70
64713;BME280;51140;45.340;5.980;2023-09-30T02:38:26;98975.00;;;18.00;82.07
64713;BME280;51140;45.340;5.980;2023-09-30T02:40:51;98977.25;;;17.93;82.21
64713;BME280;51140;45.340;5.980;2023-09-30T02:43:17;98977.09;;;17.84;82.89
64713;BME280;51140;45.340;5.980;2023-09-30T02:45:42;98967.03;;;17.76;82.66
64713;BME280;51140;45.340;5.980;2023-09-30T02:48:09;98969.19;;;17.93;82.25
64713;BME280;51140;45.340;5.980;2023-09-30T02:50:34;98975.53;;;17.83;82.76
64713;BME280;51140;45.340;5.980;2023-09-30T02:53:00;98977.56;;;17.91;82.08
64713;BME280;51140;45.340;5.980;2023-09-30T02:55:25;98980.53;;;17.90;82.29
64713;BME280;51140;45.340;5.980;2023-09-30T02:57:50;98972.03;;;17.83;82.55
64713;BME280;51140;45.340;5.980;2023-09-30T03:00:16;98974.72;;;17.83;82.72
64713;BME280;51140;45.340;5.980;2023-09-30T03:02:49;98973.56;;;17.89;81.55
64713;BME280;51140;45.340;5.980;2023-09-30T03:05:14;98978.41;;;17.87;81.75
64713;BME280;51140;45.340;5.980;2023-09-30T03:07:40;98973.69;;;17.79;82.95
64713;BME280;51140;45.340;5.980;2023-09-30T03:10:06;98974.59;;;17.74;82.55
64713;BME280;51140;45.340;5.980;2023-09-30T03:12:34;98978.50;;;17.82;82.35
64713;BME280;51140;45.340;5.980;2023-09-30T03:14:59;98969.00;;;17.70;83.99
64713;BME280;51140;45.340;5.980;2023-09-30T03:17:29;98972.13;;;17.78;83.17
64713;BME280;51140;45.340;5.980;2023-09-30T03:19:54;98964.91;;;17.73;83.65
64713;BME280;51140;45.340;5.980;2023-09-30T03:22:22;98966.94;;;17.81;83.30
64713;BME280;51140;45.340;5.980;2023-09-30T03:24:48;98971.69;;;17.70;84.10
64713;BME280;51140;45.340;5.980;2023-09-30T03:27:13;98971.88;;;17.55;84.89
64713;BME280;51140;45.340;5.980;2023-09-30T03:29:40;98965.94;;;17.58;84.12
64713;BME280;51140;45.340;5.980;2023-09-30T03:32:06;98974.59;;;17.50;84.07
64713;BME280;51140;45.340;5.980;2023-09-30T03:34:33;98972.91;;;17.36;85.49
64713;BME280;51140;45.340;5.980;2023-09-30T03:36:58;98972.63;;;17.37;84.93
64713;BME280;51140;45.340;5.980;2023-09-30T03:39:24;98968.34;;;17.36;85.33
64713;BME280;51140;45.340;5.980;2023-09-30T03:41:54;98977.03;;;17.28;85.80
64713;BME280;51140;45.340;5.980;2023-09-30T03:44:19;98976.97;;;17.33;85.92
64713;BME280;51140;45.340;5.980;2023-09-30T03:46:45;98977.53;;;17.30;86.28
64713;BME280;51140;45.340;5.980;2023-09-30T03:49:10;98984.13;;;17.19;86.82
64713;BME280;51140;45.340;5.980;2023-09-30T03:51:36;98982.69;;;17.27;86.41
64713;BME280;51140;45.340;5.980;2023-09-30T03:54:02;98986.69;;;17.29;85.94
64713;BME280;51140;45.340;5.980;2023-09-30T03:56:28;98985.97;;;17.24;86.35
64713;BME280;51140;45.340;5.980;2023-09-30T03:58:53;98988.91;;;17.46;85.45
64713;BME280;51140;45.340;5.980;2023-09-30T04:01:18;98982.34;;;17.33;85.93
64713;BME280;51140;45.340;5.980;2023-09-30T04:03:44;98984.06;;;17.24;87.04
64713;BME280;51140;45.340;5.980;2023-09-30T04:06:10;98991.34;;;17.42;86.21
64713;BME280;51140;45.340;5.980;2023-09-30T04:08:36;98996.41;;;17.25;86.53
64713;BME280;51140;45.340;5.980;2023-09-30T04:11:02;98994.00;;;17.24;86.49
64713;BME280;51140;45.340;5.980;2023-09-30T04:13:28;98985.78;;;17.15;87.21
64713;BME280;51140;45.340;5.980;2023-09-30T04:15:54;98994.91;;;17.14;86.89
64713;BME280;51140;45.340;5.980;2023-09-30T04:18:20;98988.09;;;17.22;85.94
64713;BME280;51140;45.340;5.980;2023-09-30T04:20:47;99003.13;;;16.99;87.10
64713;BME280;51140;45.340;5.980;2023-09-30T04:23:13;99001.72;;;17.06;86.84
64713;BME280;51140;45.340;5.980;2023-09-30T04:25:39;98995.59;;;17.01;87.23
64713;BME280;51140;45.340;5.980;2023-09-30T04:28:05;99002.88;;;16.95;87.79
64713;BME280;51140;45.340;5.980;2023-09-30T04:30:30;99004.72;;;17.00;87.38
64713;BME280;51140;45.340;5.980;2023-09-30T04:32:58;98994.09;;;16.90;87.78
64713;BME280;51140;45.340;5.980;2023-09-30T04:35:24;99001.13;;;16.86;88.02
64713;BME280;51140;45.340;5.980;2023-09-30T04:37:50;98998.94;;;16.88;87.78
64713;BME280;51140;45.340;5.980;2023-09-30T04:40:16;98998.88;;;16.93;87.40
64713;BME280;51140;45.340;5.980;2023-09-30T04:42:45;99001.94;;;16.86;88.08
64713;BME280;51140;45.340;5.980;2023-09-30T04:45:14;99004.31;;;16.88;87.55
64713;BME280;51140;45.340;5.980;2023-09-30T04:47:45;98987.47;;;16.82;87.84
64713;BME280;51140;45.340;5.980;2023-09-30T04:50:11;98982.81;;;16.64;88.88
64713;BME280;51140;45.340;5.980;2023-09-30T04:52:38;98979.81;;;16.71;88.65
64713;BME280;51140;45.340;5.980;2023-09-30T04:55:06;98991.59;;;16.75;88.38
64713;BME280;51140;45.340;5.980;2023-09-30T04:57:31;98993.72;;;16.73;87.90
64713;BME280;51140;45.340;5.980;2023-09-30T04:59:57;98993.16;;;16.76;87.69
64713;BME280;51140;45.340;5.980;2023-09-30T05:02:23;98994.28;;;16.70;88.27
64713;BME280;51140;45.340;5.980;2023-09-30T05:04:49;98992.97;;;16.72;87.88
64713;BME280;51140;45.340;5.980;2023-09-30T05:07:14;98998.06;;;16.69;87.92
64713;BME280;51140;45.340;5.980;2023-09-30T05:09:39;98995.22;;;16.60;88.05
64713;BME280;51140;45.340;5.980;2023-09-30T05:12:05;99001.59;;;16.64;88.24
64713;BME280;51140;45.340;5.980;2023-09-30T05:14:31;98999.16;;;16.68;88.04
64713;BME280;51140;45.340;5.980;2023-09-30T05:16:56;99005.81;;;16.70;88.45
64713;BME280;51140;45.340;5.980;2023-09-30T05:19:22;99009.25;;;16.42;89.50
64713;BME280;51140;45.340;5.980;2023-09-30T05:21:48;99007.28;;;16.57;88.69
64713;BME280;51140;45.340;5.980;2023-09-30T05:24:14;99012.56;;;16.68;88.26
64713;BME280;51140;45.340;5.980;2023-09-30T05:26:39;99022.25;;;16.64;88.63
64713;BME280;51140;45.340;5.980;2023-09-30T05:29:05;99021.09;;;16.70;88.19
64713;BME280;51140;45.340;5.980;2023-09-30T05:31:31;99011.53;;;16.64;88.42
64713;BME280;51140;45.340;5.980;2023-09-30T05:33:57;99015.09;;;16.83;88.40
64713;BME280;51140;45.340;5.980;2023-09-30T05:36:22;99020.47;;;16.83;87.81
64713;BME280;51140;45.340;5.980;2023-09-30T05:38:48;99030.19;;;16.74;88.00
64713;BME280;51140;45.340;5.980;2023-09-30T05:41:16;99037.81;;;16.62;89.09
64713;BME280;51140;45.340;5.980;2023-09-30T05:43:42;99048.25;;;16.63;89.11
64713;BME280;51140;45.340;5.980;2023-09-30T05:46:09;99058.44;;;16.61;89.27
64713;BME280;51140;45.340;5.980;2023-09-30T05:48:34;99054.44;;;16.64;89.69
64713;BME280;51140;45.340;5.980;2023-09-30T05:51:00;99058.81;;;16.83;88.70
64713;BME280;51140;45.340;5.980;2023-09-30T05:53:26;99059.00;;;16.92;88.63
64713;BME280;51140;45.340;5.980;2023-09-30T05:55:52;99061.31;;;16.98;88.56
64713;BME280;51140;45.340;5.980;2023-09-30T05:58:18;99058.63;;;16.98;87.94
64713;BME280;51140;45.340;5.980;2023-09-30T06:00:43;99060.09;;;17.14;88.54
64713;BME280;51140;45.340;5.980;2023-09-30T06:03:09;99060.78;;;17.25;88.77
64713;BME280;51140;45.340;5.980;2023-09-30T06:05:41;99063.28;;;17.16;88.10
64713;BME280;51140;45.340;5.980;2023-09-30T06:08:08;99051.13;;;17.24;87.97
64713;BME280;51140;45.340;5.980;2023-09-30T06:10:36;99057.94;;;17.40;87.39
64713;BME280;51140;45.340;5.980;2023-09-30T06:13:03;99057.06;;;17.45;86.24
64713;BME280;51140;45.340;5.980;2023-09-30T06:15:28;99060.50;;;17.50;86.52
64713;BME280;51140;45.340;5.980;2023-09-30T06:17:57;99053.59;;;17.21;88.40
64713;BME280;51140;45.340;5.980;2023-09-30T06:20:23;99047.59;;;17.52;87.58
64713;BME280;51140;45.340;5.980;2023-09-30T06:22:51;99055.38;;;17.30;87.99
64713;BME280;51140;45.340;5.980;2023-09-30T06:25:19;99065.94;;;17.45;88.44
64713;BME280;51140;45.340;5.980;2023-09-30T06:27:46;99067.25;;;17.48;88.17
64713;BME280;51140;45.340;5.980;2023-09-30T06:30:13;99066.53;;;17.66;87.93
64713;BME280;51140;45.340;5.980;2023-09-30T06:32:39;99065.72;;;17.65;88.35
64713;BME280;51140;45.340;5.980;2023-09-30T06:35:06;99071.19;;;17.79;87.60
64713;BME280;51140;45.340;5.980;2023-09-30T06:37:34;99077.16;;;17.95;88.58
64713;BME280;51140;45.340;5.980;2023-09-30T06:39:59;99071.78;;;18.13;86.37
64713;BME280;51140;45.340;5.980;2023-09-30T06:42:28;99070.91;;;18.18;87.19
64713;BME280;51140;45.340;5.980;2023-09-30T06:44:54;99074.50;;;18.32;86.65
64713;BME280;51140;45.340;5.980;2023-09-30T06:47:19;99078.41;;;18.40;87.60
64713;BME280;51140;45.340;5.980;2023-09-30T06:49:46;99066.97;;;18.48;86.70
64713;BME280;51140;45.340;5.980;2023-09-30T06:52:11;99064.75;;;18.36;86.23
64713;BME280;51140;45.340;5.980;2023-09-30T06:54:37;99068.94;;;18.42;85.89
64713;BME280;51140;45.340;5.980;2023-09-30T06:57:02;99054.63;;;18.47;87.35
64713;BME280;51140;45.340;5.980;2023-09-30T06:59:28;99063.44;;;18.52;87.10
64713;BME280;51140;45.340;5.980;2023-09-30T07:01:53;99069.63;;;18.53;86.83
64713;BME280;51140;45.340;5.980;2023-09-30T07:04:19;99076.16;;;18.65;85.84
64713;BME280;51140;45.340;5.980;2023-09-30T07:06:46;99072.81;;;18.36;85.63
64713;BME280;51140;45.340;5.980;2023-09-30T07:09:12;99072.66;;;18.65;85.57
64713;BME280;51140;45.340;5.980;2023-09-30T07:11:37;99074.38;;;18.74;83.74
64713;BME280;51140;45.340;5.980;2023-09-30T07:14:03;99076.69;;;18.81;82.04
64713;BME280;51140;45.340;5.980;2023-09-30T07:16:28;99073.72;;;18.82;81.00
64713;BME280;51140;45.340;5.980;2023-09-30T07:18:54;99090.84;;;18.86;82.91
64713;BME280;51140;45.340;5.980;2023-09-30T07:21:20;99090.59;;;19.02;82.46
64713;BME280;51140;45.340;5.980;2023-09-30T07:23:46;99087.41;;;19.00;80.62
64713;BME280;51140;45.340;5.980;2023-09-30T07:26:13;99092.69;;;19.05;80.75
64713;BME280;51140;45.340;5.980;2023-09-30T07:28:39;99099.28;;;19.12;81.79
64713;BME280;51140;45.340;5.980;2023-09-30T07:31:05;99097.28;;;19.18;79.67
64713;BME280;51140;45.340;5.980;2023-09-30T07:33:30;99095.91;;;19.20;82.25
64713;BME280;51140;45.340;5.980;2023-09-30T07:35:56;99093.03;;;19.30;82.29
64713;BME280;51140;45.340;5.980;2023-09-30T07:38:22;99104.00;;;19.34;79.93
64713;BME280;51140;45.340;5.980;2023-09-30T07:40:48;99104.06;;;19.15;80.98
64713;BME280;51140;45.340;5.980;2023-09-30T07:43:14;99099.97;;;19.18;81.46
64713;BME280;51140;45.340;5.980;2023-09-30T07:45:39;99102.84;;;18.94;81.64
64713;BME280;51140;45.340;5.980;2023-09-30T07:48:07;99113.88;;;18.93;83.41
64713;BME280;51140;45.340;5.980;2023-09-30T07:50:34;99112.94;;;18.83;82.24
64713;BME280;51140;45.340;5.980;2023-09-30T07:53:00;99109.75;;;18.81;81.51
64713;BME280;51140;45.340;5.980;2023-09-30T07:55:26;99105.72;;;18.65;82.09
64713;BME280;51140;45.340;5.980;2023-09-30T07:57:51;99100.13;;;18.62;81.63
64713;BME280;51140;45.340;5.980;2023-09-30T08:00:17;99106.78;;;18.83;80.36
64713;BME280;51140;45.340;5.980;2023-09-30T08:02:43;99103.06;;;18.98;79.82
64713;BME280;51140;45.340;5.980;2023-09-30T08:05:09;99094.34;;;19.01;78.87
64713;BME280;51140;45.340;5.980;2023-09-30T08:07:35;99101.34;;;19.02;78.07
64713;BME280;51140;45.340;5.980;2023-09-30T08:10:01;99099.00;;;19.14;78.52
64713;BME280;51140;45.340;5.980;2023-09-30T08:12:29;99089.53;;;19.16;77.67
64713;BME280;51140;45.340;5.980;2023-09-30T08:14:54;99092.31;;;19.25;78.32
64713;BME280;51140;45.340;5.980;2023-09-30T08:17:20;99095.81;;;19.25;77.52
64713;BME280;51140;45.340;5.980;2023-09-30T08:19:45;99097.00;;;19.33;77.00
64713;BME280;51140;45.340;5.980;2023-09-30T08:22:13;99090.53;;;19.34;77.31
64713;BME280;51140;45.340;5.980;2023-09-30T08:24:38;99086.69;;;19.40;77.41
64713;BME280;51140;45.340;5.980;2023-09-30T08:27:04;99098.63;;;19.34;77.48
64713;BME280;51140;45.340;5.980;2023-09-30T08:29:33;99083.38;;;19.70;77.13
64713;BME280;51140;45.340;5.980;2023-09-30T08:32:01;99082.19;;;19.76;76.80
64713;BME280;51140;45.340;5.980;2023-09-30T08:34:26;99079.91;;;19.70;77.51
64713;BME280;51140;45.340;5.980;2023-09-30T08:36:52;99079.19;;;19.78;77.20
64713;BME280;51140;45.340;5.980;2023-09-30T08:39:17;99072.16;;;20.04;77.48
64713;BME280;51140;45.340;5.980;2023-09-30T08:41:42;99075.13;;;20.16;77.77
64713;BME280;51140;45.340;5.980;2023-09-30T08:44:10;99075.16;;;20.03;76.51
64713;BME280;51140;45.340;5.980;2023-09-30T08:46:36;99089.75;;;19.88;77.07
64713;BME280;51140;45.340;5.980;2023-09-30T08:49:03;99089.28;;;19.59;78.30
64713;BME280;51140;45.340;5.980;2023-09-30T08:51:30;99093.88;;;19.85;78.13
64713;BME280;51140;45.340;5.980;2023-09-30T08:53:57;99096.34;;;19.95;77.05
64713;BME280;51140;45.340;5.980;2023-09-30T08:56:25;99090.31;;;20.26;76.71
64713;BME280;51140;45.340;5.980;2023-09-30T08:58:55;99087.53;;;20.04;76.01
64713;BME280;51140;45.340;5.980;2023-09-30T09:01:22;99084.13;;;20.12;75.85
64713;BME280;51140;45.340;5.980;2023-09-30T09:03:47;99087.88;;;20.38;75.25
64713;BME280;51140;45.340;5.980;2023-09-30T09:06:20;99080.25;;;21.06;74.46
64713;BME280;51140;45.340;5.980;2023-09-30T09:08:46;99094.81;;;21.19;75.70
64713;BME280;51140;45.340;5.980;2023-09-30T09:11:12;99087.97;;;21.22;72.67
64713;BME280;51140;45.340;5.980;2023-09-30T09:13:50;99090.31;;;21.45;75.28
64713;BME280;51140;45.340;5.980;2023-09-30T09:16:18;99077.72;;;21.41;73.05
64713;BME280;51140;45.340;5.980;2023-09-30T09:18:44;99084.44;;;20.90;75.49
64713;BME280;51140;45.340;5.980;2023-09-30T09:21:17;99087.69;;;20.79;75.24
64713;BME280;51140;45.340;5.980;2023-09-30T09:23:44;99084.81;;;21.20;73.04
64713;BME280;51140;45.340;5.980;2023-09-30T09:26:11;99080.16;;;21.51;74.78
64713;BME280;51140;45.340;5.980;2023-09-30T09:28:37;99082.06;;;21.98;71.47
64713;BME280;51140;45.340;5.980;2023-09-30T09:31:26;99084.31;;;22.13;68.91
64713;BME280;51140;45.340;5.980;2023-09-30T09:33:52;99076.91;;;21.80;69.17
64713;BME280;51140;45.340;5.980;2023-09-30T09:36:18;99079.13;;;21.86;72.32
64713;BME280;51140;45.340;5.980;2023-09-30T09:38:51;99077.31;;;22.12;69.74
64713;BME280;51140;45.340;5.980;2023-09-30T09:41:20;99073.03;;;22.46;69.82
64713;BME280;51140;45.340;5.980;2023-09-30T09:43:48;99076.69;;;22.41;69.78
64713;BME280;51140;45.340;5.980;2023-09-30T09:46:16;99067.13;;;22.78;67.68
64713;BME280;51140;45.340;5.980;2023-09-30T09:48:42;99067.59;;;22.89;63.08
64713;BME280;51140;45.340;5.980;2023-09-30T09:51:11;99094.81;;;22.75;61.39
64713;BME280;51140;45.340;5.980;2023-09-30T09:53:38;99084.34;;;22.65;60.31
64713;BME280;51140;45.340;5.980;2023-09-30T09:56:07;99064.59;;;22.73;64.61
64713;BME280;51140;45.340;5.980;2023-09-30T09:58:36;99067.75;;;22.58;63.93
64713;BME280;51140;45.340;5.980;2023-09-30T10:01:05;99063.16;;;22.50;63.88
64713;BME280;51140;45.340;5.980;2023-09-30T10:03:31;99073.81;;;22.55;61.61
64713;BME280;51140;45.340;5.980;2023-09-30T10:05:57;99107.41;;;22.62;59.14
64713;BME280;51140;45.340;5.980;2023-09-30T10:08:37;99071.59;;;22.57;63.82
64713;BME280;51140;45.340;5.980;2023-09-30T10:11:04;99073.00;;;22.89;60.28
64713;BME280;51140;45.340;5.980;2023-09-30T10:13:53;99063.00;;;22.72;61.12
64713;BME280;51140;45.340;5.980;2023-09-30T10:16:49;99097.38;;;22.63;58.14
64713;BME280;51140;45.340;5.980;2023-09-30T10:19:20;99060.22;;;22.98;64.20
64713;BME280;51140;45.340;5.980;2023-09-30T10:24:43;99027.25;;;22.96;61.04
64713;BME280;51140;45.340;5.980;2023-09-30T10:29:47;99123.72;;;23.17;55.88
64713;BME280;51140;45.340;5.980;2023-09-30T10:32:12;99105.31;;;23.02;54.93
64713;BME280;51140;45.340;5.980;2023-09-30T10:34:39;99051.00;;;22.90;58.43
64713;BME280;51140;45.340;5.980;2023-09-30T10:37:20;99040.31;;;23.02;61.35
64713;BME280;51140;45.340;5.980;2023-09-30T10:39:53;99065.75;;;23.18;57.31
64713;BME280;51140;45.340;5.980;2023-09-30T10:42:43;99067.56;;;22.97;57.34
64713;BME280;51140;45.340;5.980;2023-09-30T10:50:59;99029.81;;;22.92;56.69
64713;BME280;51140;45.340;5.980;2023-09-30T10:53:26;99043.84;;;22.94;56.27
64713;BME280;51140;45.340;5.980;2023-09-30T10:55:56;99042.69;;;23.04;55.86
64713;BME280;51140;45.340;5.980;2023-09-30T10:58:44;98998.66;;;22.69;61.35
64713;BME280;51140;45.340;5.980;2023-09-30T11:01:34;99032.09;;;22.82;57.81
64713;BME280;51140;45.340;5.980;2023-09-30T11:04:01;99026.84;;;22.85;56.99
64713;BME280;51140;45.340;5.980;2023-09-30T11:06:29;99043.09;;;22.76;56.13
64713;BME280;51140;45.340;5.980;2023-09-30T11:08:57;98998.47;;;22.91;57.85
64713;BME280;51140;45.340;5.980;2023-09-30T11:11:37;99061.19;;;23.02;55.96
64713;BME280;51140;45.340;5.980;2023-09-30T11:14:04;99010.66;;;23.14;59.56
64713;BME280;51140;45.340;5.980;2023-09-30T11:16:42;99073.13;;;22.92;54.27
64713;BME280;51140;45.340;5.980;2023-09-30T11:19:08;98995.28;;;22.80;60.46
64713;BME280;51140;45.340;5.980;2023-09-30T11:21:34;99054.75;;;22.68;55.93
64713;BME280;51140;45.340;5.980;2023-09-30T11:24:01;99059.94;;;22.91;55.15
64713;BME280;51140;45.340;5.980;2023-09-30T11:26:31;98957.03;;;22.99;60.51
64713;BME280;51140;45.340;5.980;2023-09-30T11:29:14;99057.66;;;23.10;54.60
64713;BME280;51140;45.340;5.980;2023-09-30T11:31:47;99014.56;;;22.88;56.56
64713;BME280;51140;45.340;5.980;2023-09-30T11:34:14;99031.53;;;23.05;55.57
64713;BME280;51140;45.340;5.980;2023-09-30T11:36:47;98985.59;;;23.17;57.16
64713;BME280;51140;45.340;5.980;2023-09-30T11:39:28;99053.44;;;23.29;54.14
64713;BME280;51140;45.340;5.980;2023-09-30T11:41:54;98986.66;;;23.33;56.01
64713;BME280;51140;45.340;5.980;2023-09-30T11:44:23;99036.34;;;23.37;55.45
64713;BME280;51140;45.340;5.980;2023-09-30T11:46:57;99010.22;;;23.42;54.43
64713;BME280;51140;45.340;5.980;2023-09-30T11:49:33;99051.06;;;23.66;54.92
64713;BME280;51140;45.340;5.980;2023-09-30T11:52:04;98971.66;;;23.65;56.24
64713;BME280;51140;45.340;5.980;2023-09-30T11:54:34;99028.50;;;23.53;55.12
64713;BME280;51140;45.340;5.980;2023-09-30T11:57:03;98998.34;;;23.55;54.82
64713;BME280;51140;45.340;5.980;2023-09-30T11:59:29;99032.31;;;23.52;55.61
64713;BME280;51140;45.340;5.980;2023-09-30T12:01:55;99025.44;;;23.17;53.49
64713;BME280;51140;45.340;5.980;2023-09-30T12:04:21;98997.19;;;23.26;55.50
64713;BME280;51140;45.340;5.980;2023-09-30T12:06:47;98998.34;;;23.55;54.83
64713;BME280;51140;45.340;5.980;2023-09-30T12:09:14;98840.09;;;23.68;61.19
64713;BME280;51140;45.340;5.980;2023-09-30T12:11:43;99003.47;;;23.77;55.87
64713;BME280;51140;45.340;5.980;2023-09-30T12:14:12;99036.19;;;23.72;52.60
64713;BME280;51140;45.340;5.980;2023-09-30T12:16:38;98967.22;;;24.02;54.93
64713;BME280;51140;45.340;5.980;2023-09-30T12:19:03;98986.09;;;24.19;53.33
64713;BME280;51140;45.340;5.980;2023-09-30T12:21:31;99028.34;;;24.00;51.44
64713;BME280;51140;45.340;5.980;2023-09-30T12:23:57;98972.38;;;24.36;55.65
64713;BME280;51140;45.340;5.980;2023-09-30T12:26:22;99032.88;;;24.37;51.26
64713;BME280;51140;45.340;5.980;2023-09-30T12:28:48;98924.72;;;24.60;55.73
64713;BME280;51140;45.340;5.980;2023-09-30T12:31:13;99092.28;;;24.51;49.59
64713;BME280;51140;45.340;5.980;2023-09-30T12:33:39;98980.75;;;24.43;53.02
64713;BME280;51140;45.340;5.980;2023-09-30T12:36:05;99027.63;;;24.32;50.90
64713;BME280;51140;45.340;5.980;2023-09-30T12:38:31;99086.00;;;24.38;49.00
64713;BME280;51140;45.340;5.980;2023-09-30T12:40:56;98837.78;;;24.23;57.39
64713;BME280;51140;45.340;5.980;2023-09-30T12:43:22;98998.72;;;24.15;51.41
64713;BME280;51140;45.340;5.980;2023-09-30T12:45:47;98955.31;;;24.15;53.21
64713;BME280;51140;45.340;5.980;2023-09-30T12:48:14;98917.03;;;24.17;54.53
64713;BME280;51140;45.340;5.980;2023-09-30T12:50:40;98913.78;;;24.35;55.37
64713;BME280;51140;45.340;5.980;2023-09-30T12:53:05;98931.50;;;24.78;55.67
64713;BME280;51140;45.340;5.980;2023-09-30T12:55:30;99006.63;;;24.74;52.14
64713;BME280;51140;45.340;5.980;2023-09-30T12:57:56;99040.28;;;24.81;50.60
64713;BME280;51140;45.340;5.980;2023-09-30T13:00:21;98970.66;;;24.77;52.11
64713;BME280;51140;45.340;5.980;2023-09-30T13:02:47;98888.06;;;24.54;55.82
64713;BME280;51140;45.340;5.980;2023-09-30T13:05:14;99049.75;;;24.42;50.61
64713;BME280;51140;45.340;5.980;2023-09-30T13:07:40;98977.75;;;24.24;53.79
64713;BME280;51140;45.340;5.980;2023-09-30T13:10:05;98849.78;;;24.34;57.73